Data for 11/04/2008

Time Sea-Level Adjusted Pressure Absolute Pressure Temperature Relative Humidity Dew Point   
(mb) (inHg) (mb) (inHg) (C) (F) (%) (C) (F)
00:05 1007 29.74 836 24.69 5.4 41.8 60 -1.8 28.7
00:10 1007 29.74 836 24.69 5.5 41.8 61 -1.5 29.2
00:15 1007 29.74 836 24.69 5.6 42 60 -1.6 29.1
00:20 1007 29.74 836 24.69 5.8 42.4 60 -1.4 29.4
00:25 1006 29.71 836 24.69 6 42.7 58 -1.6 29.1
00:30 1006 29.71 835 24.66 6.2 43.1 58 -1.4 29.4
00:35 1006 29.71 835 24.66 6.2 43.2 58 -1.4 29.5
00:40 1006 29.71 835 24.66 6.2 43.1 58 -1.4 29.5
00:45 1006 29.71 835 24.66 6.2 43.1 59 -1.3 29.7
00:50 1006 29.71 835 24.66 6.2 43.1 59 -1.3 29.6
00:55 1006 29.71 835 24.66 6.1 43.1 59 -1.2 29.8
01:00 1006 29.71 835 24.66 6.1 42.9 60 -1.1 30.1
01:05 1006 29.71 835 24.66 6 42.8 60 -1 30.1
01:10 1006 29.71 835 24.66 6 42.8 61 -0.9 30.3
01:15 1006 29.71 835 24.66 6 42.8 61 -0.9 30.4
01:20 1006 29.71 835 24.66 6.1 43 61 -0.8 30.6
01:25 1006 29.71 835 24.66 6.1 43 62 -0.6 31
01:30 1006 29.71 835 24.66 6.1 43 62 -0.5 31.1
01:35 1006 29.71 835 24.66 6.1 43.1 64 -0.2 31.7
01:40 1006 29.71 835 24.66 6 42.8 65 0 32
01:45 1006 29.71 835 24.66 5.9 42.6 66 -0 31.9
01:50 1006 29.71 835 24.66 5.8 42.5 66 0 32
01:55 1006 29.71 835 24.66 5.6 42.1 68 0.2 32.4
02:00 1006 29.71 835 24.66 5.3 41.6 65 -0.7 30.7
02:05 1006 29.71 835 24.66 5.2 41.4 64 -0.9 30.3
02:10 1006 29.71 835 24.66 5.2 41.4 63 -1.2 29.8
02:15 1006 29.71 835 24.66 5.3 41.5 64 -1 30.1
02:20 1006 29.71 835 24.66 5.3 41.5 64 -1 30.2
02:25 1006 29.71 835 24.66 5.4 41.6 65 -0.7 30.7
02:30 1006 29.71 835 24.66 5.3 41.6 64 -0.9 30.3
02:35 1006 29.71 835 24.66 5.4 41.7 64 -0.8 30.6
02:40 1006 29.71 835 24.66 5.4 41.7 65 -0.7 30.8
02:45 1006 29.71 835 24.66 5.4 41.7 65 -0.7 30.7
02:50 1005 29.68 835 24.66 5.3 41.6 65 -0.7 30.8
02:55 1005 29.68 835 24.66 5.3 41.6 65 -0.8 30.6
03:00 1005 29.68 835 24.66 5.3 41.6 66 -0.6 31
03:05 1005 29.68 834 24.63 5.2 41.4 66 -0.5 31.1
03:10 1005 29.68 834 24.63 5.1 41.3 67 -0.5 31.2
03:15 1005 29.68 834 24.63 5.1 41.1 67 -0.5 31.1
03:20 1005 29.68 834 24.63 5.1 41.1 67 -0.6 30.9
03:25 1005 29.68 834 24.63 5.1 41.2 66 -0.7 30.7
03:30 1005 29.68 834 24.63 5.1 41.1 67 -0.5 31.1
03:35 1005 29.68 834 24.63 4.9 40.9 68 -0.5 31
03:40 1005 29.68 834 24.63 5 40.9 67 -0.6 31
03:45 1005 29.68 834 24.63 5 41.1 67 -0.6 30.9
03:50 1005 29.68 834 24.63 5.1 41.2 66 -0.7 30.8
03:55 1005 29.68 834 24.63 5.1 41.2 66 -0.6 30.8
04:00 1005 29.68 834 24.63 5.2 41.3 67 -0.5 31
04:05 1005 29.68 834 24.63 5.1 41.1 67 -0.6 31
04:10 1005 29.68 834 24.63 5.1 41.2 66 -0.7 30.8
04:15 1005 29.68 834 24.63 5.1 41.2 66 -0.7 30.8
04:20 1005 29.68 834 24.63 5.1 41.2 66 -0.7 30.8
04:25 1004 29.65 834 24.63 5.1 41.2 65 -0.8 30.5
04:30 1004 29.65 834 24.63 5.2 41.3 66 -0.7 30.7
04:35 1004 29.65 833 24.6 5.1 41.3 66 -0.7 30.8
04:40 1004 29.65 833 24.6 5.1 41.2 67 -0.6 31
04:45 1004 29.65 833 24.6 5.1 41.1 67 -0.5 31
04:50 1004 29.65 833 24.6 5 41 67 -0.7 30.8
04:55 1004 29.65 833 24.6 5.1 41.1 66 -0.7 30.8
05:00 1004 29.65 833 24.6 5.1 41.1 66 -0.7 30.7
05:05 1004 29.65 833 24.6 5 41.1 67 -0.6 30.9
05:10 1004 29.65 833 24.6 4.9 40.8 67 -0.6 30.8
05:15 1004 29.65 833 24.6 4.8 40.7 68 -0.6 30.9
05:20 1004 29.65 833 24.6 4.8 40.6 67 -0.8 30.6
05:25 1004 29.65 833 24.6 4.8 40.7 68 -0.6 31
05:30 1004 29.65 833 24.6 4.7 40.5 68 -0.8 30.6
05:35 1004 29.65 833 24.6 4.7 40.4 67 -1 30.3
05:40 1004 29.65 833 24.6 4.8 40.6 66 -1 30.2
05:45 1004 29.65 833 24.6 4.7 40.5 67 -1 30.3
05:50 1004 29.65 833 24.6 4.7 40.4 66 -1.2 29.9
05:55 1004 29.65 833 24.6 4.7 40.5 66 -1.1 30
06:00 1004 29.65 833 24.6 4.7 40.5 65 -1.3 29.7
06:05 1004 29.65 833 24.6 4.8 40.6 65 -1.2 29.9
06:10 1004 29.65 833 24.6 4.7 40.5 68 -0.7 30.8
06:15 1004 29.65 833 24.6 4.3 39.8 69 -0.8 30.6
06:20 1004 29.65 833 24.6 4.2 39.6 70 -0.7 30.8
06:25 1004 29.65 833 24.6 4.1 39.4 71 -0.8 30.6
06:30 1003 29.62 833 24.6 4.1 39.4 68 -1.2 29.8
06:35 1003 29.62 833 24.6 4.3 39.8 67 -1.2 29.8
06:40 1003 29.62 832 24.57 4.5 40.1 66 -1.3 29.7
06:45 1003 29.62 832 24.57 4.6 40.3 65 -1.5 29.4
06:50 1003 29.62 832 24.57 4.7 40.5 64 -1.6 29.2
06:55 1003 29.62 832 24.57 4.7 40.5 63 -1.8 28.8
07:00 1003 29.62 832 24.57 4.6 40.3 63 -1.8 28.7
07:05 1003 29.62 832 24.57 4.6 40.3 62 -2 28.4
07:10 1003 29.62 832 24.57 4.7 40.5 62 -2 28.5
07:15 1003 29.62 832 24.57 4.8 40.6 61 -2.1 28.2
07:20 1003 29.62 832 24.57 4.9 40.7 60 -2.1 28.1
07:25 1003 29.62 832 24.57 4.9 40.8 61 -2.1 28.2
07:30 1003 29.62 832 24.57 4.8 40.7 60 -2.2 28
07:35 1003 29.62 832 24.57 4.8 40.6 61 -2.2 28.1
07:40 1003 29.62 832 24.57 4.7 40.5 61 -2.2 28
07:45 1003 29.62 832 24.57 4.7 40.5 61 -2.2 28.1
07:50 1003 29.62 832 24.57 4.7 40.4 61 -2.2 28.1
07:55 1003 29.62 832 24.57 4.6 40.3 62 -2.1 28.2
08:00 1003 29.62 832 24.57 4.6 40.3 62 -2.1 28.2
08:05 1003 29.62 832 24.57 4.6 40.3 61 -2.3 27.9
08:10 1003 29.62 832 24.57 4.7 40.4 61 -2.2 28.1
08:15 1003 29.62 832 24.57 4.6 40.3 61 -2.3 27.8
08:20 1003 29.62 832 24.57 4.6 40.3 60 -2.4 27.7
08:25 1003 29.62 833 24.6 4.7 40.5 60 -2.3 27.8
08:30 1003 29.62 833 24.6 4.8 40.6 60 -2.4 27.7
08:35 1003 29.62 833 24.6 4.9 40.7 60 -2.3 27.9
08:40 1003 29.62 833 24.6 4.9 40.9 59 -2.5 27.6
08:45 1003 29.62 833 24.6 5 40.9 59 -2.4 27.7
08:50 1003 29.62 833 24.6 5 40.9 59 -2.4 27.7
08:55 1003 29.62 833 24.6 5.1 41.1 58 -2.5 27.6
09:00 1003 29.62 833 24.6 5.1 41.1 59 -2.3 27.8
09:05 1003 29.62 833 24.6 5.1 41.1 59 -2.2 28
09:10 1003 29.62 833 24.6 5.1 41.1 59 -2.2 28.1
09:15 1003 29.62 833 24.6 5.1 41.2 59 -2.2 28.1
09:20 1004 29.65 833 24.6 5.1 41.2 59 -2.1 28.2
09:25 1004 29.65 833 24.6 5.1 41.2 60 -2.1 28.3
09:30 1004 29.65 833 24.6 5.1 41.2 60 -2 28.4
09:35 1004 29.65 833 24.6 5.2 41.3 60 -1.9 28.5
09:40 1004 29.65 833 24.6 5.1 41.2 60 -1.9 28.6
09:45 1004 29.65 833 24.6 5.2 41.4 60 -1.9 28.5
09:50 1004 29.65 833 24.6 5.3 41.5 67 -0.4 31.3
09:55 1004 29.65 833 24.6 4.9 40.8 71 0.1 32.1
10:00 1004 29.65 833 24.6 4.5 40 73 0.1 32.2
10:05 1004 29.65 833 24.6 4.5 40 71 -0.3 31.5
10:10 1004 29.65 833 24.6 4.5 40.1 75 0.4 32.8
10:15 1004 29.65 833 24.6 4.5 40.1 77 0.8 33.5
10:20 1004 29.65 833 24.6 4.2 39.6 80 1 33.9
10:25 1004 29.65 833 24.6 4 39.3 78 0.6 33.1
10:30 1004 29.65 833 24.6 3.9 39 81 1 33.7
10:35 1004 29.65 834 24.63 3.7 38.7 81 0.8 33.5
10:40 1004 29.65 834 24.63 3.6 38.5 81 0.7 33.3
10:45 1004 29.65 833 24.6 3.4 38.1 85 1.1 34.1
10:50 1004 29.65 833 24.6 3.3 38 87 1.3 34.4
10:55 1004 29.65 833 24.6 3.3 37.9 85 1 33.9
11:00 1004 29.65 833 24.6 3.1 37.6 88 1.3 34.3
11:05 1004 29.65 833 24.6 3.1 37.6 87 1.2 34.2
11:10 1004 29.65 833 24.6 3.2 37.7 86 1.1 34
11:15 1004 29.65 834 24.63 3.2 37.7 87 1.2 34.1
11:20 1004 29.65 834 24.63 3.2 37.8 88 1.5 34.6
11:25 1005 29.68 834 24.63 3.3 38 88 1.6 34.9
11:30 1004 29.65 834 24.63 3.3 38 90 1.8 35.3
11:35 1004 29.65 833 24.6 3.2 37.8 91 1.9 35.4
11:40 1004 29.65 833 24.6 3.2 37.7 91 1.9 35.4
11:45 1004 29.65 833 24.6 3.1 37.6 91 1.8 35.2
11:50 1004 29.65 833 24.6 3.2 37.7 90 1.7 35.1
11:55 1004 29.65 833 24.6 3.2 37.8 90 1.7 35.1
12:00 1003 29.62 833 24.6 3.4 38.1 88 1.6 34.8
12:05 1003 29.62 833 24.6 3.6 38.5 88 1.8 35.3
12:10 1003 29.62 833 24.6 3.7 38.7 88 1.9 35.4
12:15 1003 29.62 833 24.6 3.8 38.8 87 1.8 35.3
12:20 1003 29.62 833 24.6 3.9 39.1 86 1.8 35.3
12:25 1003 29.62 832 24.57 4 39.3 86 1.9 35.5
12:30 1003 29.62 832 24.57 4.2 39.5 83 1.6 34.9
12:35 1003 29.62 832 24.57 4.4 39.9 81 1.4 34.6
12:40 1003 29.62 832 24.57 4.5 40.1 80 1.3 34.4
12:45 1003 29.62 832 24.57 4.6 40.3 79 1.3 34.3
12:50 1003 29.62 832 24.57 4.7 40.5 78 1.3 34.3
12:55 1003 29.62 832 24.57 4.8 40.7 77 1.2 34.1
13:00 1003 29.62 832 24.57 4.9 40.8 77 1.3 34.3
13:05 1003 29.62 832 24.57 4.8 40.7 79 1.4 34.6
13:10 1003 29.62 832 24.57 4.8 40.6 80 1.6 34.9
13:15 1003 29.62 832 24.57 4.8 40.7 77 1.2 34.2
13:20 1003 29.62 832 24.57 4.9 40.8 77 1.1 34
13:25 1003 29.62 832 24.57 5 40.9 77 1.2 34.2
13:30 1003 29.62 832 24.57 5.1 41.2 75 1.1 34
13:35 1003 29.62 832 24.57 5.2 41.4 74 0.9 33.7
13:40 1003 29.62 832 24.57 5.3 41.6 74 1.1 34
13:45 1003 29.62 832 24.57 5.5 41.9 72 0.8 33.4
13:50 1003 29.62 833 24.6 5.5 41.9 73 1.1 34
13:55 1003 29.62 832 24.57 5.7 42.2 73 1.2 34.1
14:00 1003 29.62 832 24.57 5.8 42.4 74 1.4 34.6
14:05 1003 29.62 832 24.57 5.8 42.5 74 1.6 34.9
14:10 1003 29.62 832 24.57 5.9 42.6 74 1.6 34.8
14:15 1003 29.62 832 24.57 6 42.8 74 1.7 35.1
14:20 1003 29.62 832 24.57 6.3 43.3 72 1.7 35.1
14:25 1003 29.62 832 24.57 6.4 43.5 72 1.7 35.1
14:30 1003 29.62 832 24.57 6.5 43.7 73 1.9 35.5
14:35 1003 29.62 832 24.57 6.5 43.6 80 3.2 37.8
14:40 1003 29.62 832 24.57 5.9 42.6 82 3 37.4
14:45 1003 29.62 832 24.57 6.1 43 79 2.8 37.1
14:50 1003 29.62 833 24.6 6.4 43.5 77 2.7 36.9
14:55 1003 29.62 833 24.6 6.4 43.6 79 3.1 37.5
15:00 1004 29.65 833 24.6 6.1 43 81 3 37.5
15:05 1004 29.65 833 24.6 5.9 42.7 81 2.9 37.3
15:10 1004 29.65 833 24.6 5.8 42.4 82 2.9 37.2
15:15 1004 29.65 833 24.6 5.8 42.5 82 3 37.3
15:20 1004 29.65 833 24.6 5.8 42.5 82 2.9 37.3
15:25 1004 29.65 833 24.6 5.8 42.4 83 3.1 37.5
15:30 1004 29.65 833 24.6 5.6 42.1 84 3.1 37.6
15:35 1004 29.65 833 24.6 5.7 42.2 83 3.1 37.5
15:40 1004 29.65 833 24.6 5.6 42.1 82 2.9 37.1
15:45 1004 29.65 834 24.63 5.5 42 84 3 37.4
15:50 1004 29.65 834 24.63 5.5 41.8 84 2.9 37.3
15:55 1005 29.68 834 24.63 5.4 41.6 83 2.8 37
16:00 1005 29.68 834 24.63 5.3 41.5 83 2.7 36.9
16:05 1005 29.68 834 24.63 4.6 40.3 81 1.6 34.8
16:10 1005 29.68 834 24.63 3 37.4 85 0.7 33.3
16:15 1005 29.68 835 24.66 2.2 36 88 0.5 32.8
16:20 1006 29.71 835 24.66 1.5 34.7 93 0.5 32.9
16:25 1006 29.71 835 24.66 1 33.9 95 0.4 32.7
16:30 1006 29.71 835 24.66 0.7 33.3 96 0.2 32.4
16:35 1006 29.71 835 24.66 0.6 33 97 0.1 32.2
16:40 1006 29.71 835 24.66 0.4 32.7 98 0.1 32.2
16:45 1006 29.71 835 24.66 0.3 32.5 98 0 32.1
16:50 1006 29.71 835 24.66 0.2 32.4 99 0 32
16:55 1006 29.71 835 24.66 0.2 32.3 99 -0 32
17:00 1006 29.71 835 24.66 0.3 32.5 99 0.1 32.1
17:05 1006 29.71 835 24.66 0.5 32.8 97 0.1 32.1
17:10 1006 29.71 835 24.66 0.7 33.2 96 0.1 32.2
17:15 1006 29.71 835 24.66 0.8 33.5 95 0.1 32.2
17:20 1006 29.71 835 24.66 1.1 33.9 94 0.2 32.4
17:25 1006 29.71 835 24.66 1.2 34.2 92 0.1 32.2
17:30 1006 29.71 835 24.66 1.3 34.3 93 0.3 32.6
17:35 1006 29.71 835 24.66 1.2 34.2 93 0.2 32.4
17:40 1006 29.71 835 24.66 1.2 34.2 92 0.1 32.2
17:45 1006 29.71 835 24.66 1.3 34.4 92 0.1 32.2
17:50 1006 29.71 836 24.69 1.1 34 93 0.1 32.3
17:55 1006 29.71 836 24.69 1 33.9 93 0 32.1
18:00 1006 29.71 836 24.69 1 33.8 92 -0.1 31.7
18:05 1006 29.71 836 24.69 1.2 34.1 91 -0.2 31.6
18:10 1006 29.71 836 24.69 1.3 34.4 90 -0.2 31.7
18:15 1007 29.74 836 24.69 1.3 34.3 90 -0.2 31.6
18:20 1007 29.74 836 24.69 1.5 34.7 88 -0.3 31.5
18:25 1007 29.74 836 24.69 1.7 35.1 86 -0.4 31.3
18:30 1007 29.74 836 24.69 1.9 35.3 85 -0.3 31.4
18:35 1007 29.74 836 24.69 1.8 35.3 86 -0.2 31.6
18:40 1007 29.74 836 24.69 1.8 35.2 86 -0.3 31.4
18:45 1007 29.74 836 24.69 1.6 34.9 86 -0.5 31
18:50 1007 29.74 836 24.69 1.6 34.9 86 -0.5 31.1
18:55 1007 29.74 836 24.69 1.6 34.8 87 -0.3 31.4
19:00 1007 29.74 836 24.69 1.5 34.7 87 -0.4 31.2
19:05 1007 29.74 836 24.69 1.6 35 85 -0.6 30.9
19:10 1007 29.74 836 24.69 1.8 35.3 85 -0.5 31.1
19:15 1007 29.74 836 24.69 1.9 35.4 85 -0.4 31.3
19:20 1007 29.74 836 24.69 1.9 35.5 84 -0.5 31.1
19:25 1007 29.74 836 24.69 2.1 35.8 84 -0.4 31.3
19:30 1007 29.74 836 24.69 2.2 35.9 81 -0.7 30.7
19:35 1007 29.74 836 24.69 2.2 36 80 -0.8 30.6
19:40 1007 29.74 836 24.69 2.4 36.3 79 -0.9 30.4
19:45 1007 29.74 836 24.69 2.5 36.5 80 -0.7 30.8
19:50 1007 29.74 836 24.69 2.3 36.2 82 -0.5 31.1
19:55 1007 29.74 836 24.69 2.3 36.2 80 -0.7 30.7
20:00 1007 29.74 836 24.69 2.5 36.5 83 -0 32
20:05 1007 29.74 836 24.69 2.6 36.7 78 -0.8 30.6
20:10 1007 29.74 836 24.69 2.6 36.6 80 -0.5 31.1
20:15 1007 29.74 836 24.69 2.4 36.2 84 -0.1 31.9
20:20 1007 29.74 837 24.72 2.1 35.8 87 0.1 32.2
20:25 1007 29.74 837 24.72 1.6 34.9 90 0.1 32.2
20:30 1007 29.74 837 24.72 1.2 34.1 93 0.1 32.2
20:35 1007 29.74 837 24.72 0.7 33.3 95 -0 32
20:40 1007 29.74 837 24.72 0.7 33.2 95 -0 32
20:45 1007 29.74 837 24.72 0.7 33.2 95 0 32
20:50 1007 29.74 837 24.72 0.7 33.2 95 -0 32
20:55 1007 29.74 837 24.72 0.4 32.8 96 -0.1 31.9
21:00 1007 29.74 837 24.72 0.3 32.5 97 -0.1 31.8
21:05 1007 29.74 837 24.72 0.2 32.4 98 -0.1 31.8
21:10 1007 29.74 837 24.72 0.3 32.5 98 -0 31.9
21:15 1007 29.74 837 24.72 0.3 32.5 98 -0 32
21:20 1007 29.74 837 24.72 0.3 32.6 98 0 32
21:25 1007 29.74 837 24.72 0.4 32.7 98 0.1 32.2
21:30 1007 29.74 837 24.72 0.5 33 97 0.1 32.2
21:35 1007 29.74 837 24.72 0.7 33.3 95 0.1 32.1
21:40 1008 29.77 837 24.72 1.1 34 93 0.2 32.3
21:45 1008 29.77 837 24.72 1 33.8 95 0.2 32.4
21:50 1008 29.77 837 24.72 0.7 33.2 96 0.1 32.2
21:55 1008 29.77 837 24.72 0.4 32.8 96 -0.2 31.6
22:00 1008 29.77 837 24.72 0.4 32.7 95 -0.3 31.5
22:05 1008 29.77 837 24.72 0.3 32.6 96 -0.2 31.6
22:10 1008 29.77 837 24.72 0.3 32.5 96 -0.3 31.5
22:15 1008 29.77 838 24.75 0.3 32.6 95 -0.4 31.3
22:20 1008 29.77 838 24.75 0.3 32.5 96 -0.3 31.4
22:25 1008 29.77 838 24.75 0.3 32.5 96 -0.3 31.5
22:30 1009 29.8 838 24.75 0.3 32.5 96 -0.3 31.5
22:35 1009 29.8 838 24.75 0.3 32.5 96 -0.2 31.6
22:40 1009 29.8 838 24.75 0.3 32.5 96 -0.3 31.5
22:45 1009 29.8 838 24.75 0.3 32.6 96 -0.2 31.6
22:50 1009 29.8 838 24.75 0.3 32.6 96 -0.3 31.5
22:55 1009 29.8 838 24.75 0.3 32.6 96 -0.2 31.6
23:00 1009 29.8 838 24.75 0.4 32.7 95 -0.3 31.5
23:05 1009 29.8 838 24.75 0.4 32.8 95 -0.3 31.5
23:10 1009 29.8 838 24.75 0.5 32.8 95 -0.3 31.5
23:15 1009 29.8 838 24.75 0.5 32.9 94 -0.3 31.4
23:20 1009 29.8 838 24.75 0.6 33 93 -0.4 31.3
23:25 1009 29.8 838 24.75 0.6 33 93 -0.4 31.3
23:30 1009 29.8 838 24.75 0.6 33 93 -0.4 31.2
23:35 1009 29.8 838 24.75 0.6 33.1 92 -0.5 31.1
23:40 1009 29.8 838 24.75 0.6 33.1 92 -0.5 31.1
23:45 1009 29.8 838 24.75 0.7 33.2 92 -0.5 31.1
23:50 1009 29.8 838 24.75 0.7 33.2 92 -0.5 31.1
23:55 1009 29.8 838 24.75 0.6 33.1 92 -0.5 31.1
24:00 1009 29.8 839 24.78 0.6 33 90 -0.8 30.5